<?xml version="1.0" encoding="UTF-8" standalone="no" ?>
<gpx xmlns="http://www.topografix.com/GPX/1/1" xmlns:xsi="http://www.w3.org/2001/XMLSchema-instance" xsi:schemaLocation="http://www.topografix.com/GPX/1/1 http://www.topografix.com/GPX/1/1/gpx.xsd" version="1.1" creator="VisuGPX - https://www.visugpx.com">
  <metadata>
    <name>Le Rumberg-Steig à Ludwigswinkel</name>
    <desc><![CDATA[Départ du parking, Landgrafenstrasse, au centre de Ludwigswinkel. Suivre le balisage orange vers l’ancien camp militaire américain de stockage d’armement et de munitions nucléaires de 1956 à 1994. Monter au sommet du Rumberg. Suivre le chemin de crête qui passe près de cinq rochers remarquables : Ostfels, Lochfels, Wespenfels, Habichtsfels et Kastenfels. Après un court passage en vallée, le sentier remonte vers le Guckenbühl et son beau rocher massif côté Est. Continuer vers l’étang du Rösselsweiher, la source Rösselquelle et l’ancienne ferme Roesselsbrunner-Hof. Juste avant d’arriver dans le village de Ludwigswinkel, le chemin longe l’étang Sägmühlweiher.
Photos : https://photos.app.goo.gl/dR4Vy4ospdnoILzr2 
Site du club vosgien de Bitche : http://www.clubvosgienbitche.fr/
]]></desc>
  </metadata>
  <trk>
    <name><![CDATA[8750336-Ludwigswinkel Rumberg-Steig]]></name>
    <trkseg>
      <trkpt lat="49.07736" lon="7.66564">
        <ele>237</ele>
        <time>2018-06-06T08:47:25Z</time>
      </trkpt>
      <trkpt lat="49.07711" lon="7.66597">
        <ele>235</ele>
        <time>2018-06-06T08:48:25Z</time>
      </trkpt>
      <trkpt lat="49.07736" lon="7.66639">
        <ele>235</ele>
        <time>2018-06-06T08:49:25Z</time>
      </trkpt>
      <trkpt lat="49.07692" lon="7.66688">
        <ele>234</ele>
        <time>2018-06-06T08:50:25Z</time>
      </trkpt>
      <trkpt lat="49.07699" lon="7.66741">
        <ele>233</ele>
        <time>2018-06-06T08:51:25Z</time>
      </trkpt>
      <trkpt lat="49.07681" lon="7.6676">
        <ele>233</ele>
        <time>2018-06-06T08:52:25Z</time>
      </trkpt>
      <trkpt lat="49.07601" lon="7.66649">
        <ele>233</ele>
        <time>2018-06-06T08:53:25Z</time>
      </trkpt>
      <trkpt lat="49.0757" lon="7.66701">
        <ele>233</ele>
        <time>2018-06-06T08:54:25Z</time>
      </trkpt>
      <trkpt lat="49.07486" lon="7.66722">
        <ele>236</ele>
        <time>2018-06-06T08:55:25Z</time>
      </trkpt>
      <trkpt lat="49.07416" lon="7.6672">
        <ele>238</ele>
        <time>2018-06-06T08:56:25Z</time>
      </trkpt>
      <trkpt lat="49.07407" lon="7.66688">
        <ele>238</ele>
        <time>2018-06-06T08:57:25Z</time>
      </trkpt>
      <trkpt lat="49.07355" lon="7.66719">
        <ele>239</ele>
        <time>2018-06-06T08:58:25Z</time>
      </trkpt>
      <trkpt lat="49.07266" lon="7.6669">
        <ele>241</ele>
        <time>2018-06-06T08:59:25Z</time>
      </trkpt>
      <trkpt lat="49.07218" lon="7.66679">
        <ele>243</ele>
        <time>2018-06-06T09:00:25Z</time>
      </trkpt>
      <trkpt lat="49.07155" lon="7.66669">
        <ele>245</ele>
        <time>2018-06-06T09:01:25Z</time>
      </trkpt>
      <trkpt lat="49.07019" lon="7.66672">
        <ele>254</ele>
        <time>2018-06-06T09:02:25Z</time>
      </trkpt>
      <trkpt lat="49.06993" lon="7.66679">
        <ele>255</ele>
        <time>2018-06-06T09:03:25Z</time>
      </trkpt>
      <trkpt lat="49.06922" lon="7.66779">
        <ele>256</ele>
        <time>2018-06-06T09:04:25Z</time>
      </trkpt>
      <trkpt lat="49.06884" lon="7.6679">
        <ele>256</ele>
        <time>2018-06-06T09:05:25Z</time>
      </trkpt>
      <trkpt lat="49.06765" lon="7.66862">
        <ele>257</ele>
        <time>2018-06-06T09:06:25Z</time>
      </trkpt>
      <trkpt lat="49.06749" lon="7.66842">
        <ele>256</ele>
        <time>2018-06-06T09:07:25Z</time>
      </trkpt>
      <trkpt lat="49.06703" lon="7.66757">
        <ele>249</ele>
        <time>2018-06-06T09:08:25Z</time>
      </trkpt>
      <trkpt lat="49.06585" lon="7.66822">
        <ele>250</ele>
        <time>2018-06-06T09:09:25Z</time>
      </trkpt>
      <trkpt lat="49.06528" lon="7.66911">
        <ele>255</ele>
        <time>2018-06-06T09:10:25Z</time>
      </trkpt>
      <trkpt lat="49.06527" lon="7.67027">
        <ele>258</ele>
        <time>2018-06-06T09:11:25Z</time>
      </trkpt>
      <trkpt lat="49.06498" lon="7.67055">
        <ele>260</ele>
        <time>2018-06-06T09:12:25Z</time>
      </trkpt>
      <trkpt lat="49.06464" lon="7.67107">
        <ele>265</ele>
        <time>2018-06-06T09:13:25Z</time>
      </trkpt>
      <trkpt lat="49.06453" lon="7.67143">
        <ele>267</ele>
        <time>2018-06-06T09:14:25Z</time>
      </trkpt>
      <trkpt lat="49.06432" lon="7.6718">
        <ele>269</ele>
        <time>2018-06-06T09:15:25Z</time>
      </trkpt>
      <trkpt lat="49.06362" lon="7.67195">
        <ele>276</ele>
        <time>2018-06-06T09:16:25Z</time>
      </trkpt>
      <trkpt lat="49.06332" lon="7.6714">
        <ele>277</ele>
        <time>2018-06-06T09:17:25Z</time>
      </trkpt>
      <trkpt lat="49.06279" lon="7.67125">
        <ele>294</ele>
        <time>2018-06-06T09:18:25Z</time>
      </trkpt>
      <trkpt lat="49.06239" lon="7.67157">
        <ele>305</ele>
        <time>2018-06-06T09:19:25Z</time>
      </trkpt>
      <trkpt lat="49.06201" lon="7.67218">
        <ele>309</ele>
        <time>2018-06-06T09:20:25Z</time>
      </trkpt>
      <trkpt lat="49.0617" lon="7.67222">
        <ele>313</ele>
        <time>2018-06-06T09:21:25Z</time>
      </trkpt>
      <trkpt lat="49.06169" lon="7.67258">
        <ele>308</ele>
        <time>2018-06-06T09:22:25Z</time>
      </trkpt>
      <trkpt lat="49.06179" lon="7.6731">
        <ele>303</ele>
        <time>2018-06-06T09:23:25Z</time>
      </trkpt>
      <trkpt lat="49.06152" lon="7.67282">
        <ele>304</ele>
        <time>2018-06-06T09:24:25Z</time>
      </trkpt>
      <trkpt lat="49.06121" lon="7.67229">
        <ele>307</ele>
        <time>2018-06-06T09:25:25Z</time>
      </trkpt>
      <trkpt lat="49.06043" lon="7.67048">
        <ele>333</ele>
        <time>2018-06-06T09:26:25Z</time>
      </trkpt>
      <trkpt lat="49.06029" lon="7.67021">
        <ele>333</ele>
        <time>2018-06-06T09:27:25Z</time>
      </trkpt>
      <trkpt lat="49.06042" lon="7.6702">
        <ele>338</ele>
        <time>2018-06-06T09:28:25Z</time>
      </trkpt>
      <trkpt lat="49.05943" lon="7.66822">
        <ele>344</ele>
        <time>2018-06-06T09:29:25Z</time>
      </trkpt>
      <trkpt lat="49.05904" lon="7.66713">
        <ele>353</ele>
        <time>2018-06-06T09:30:25Z</time>
      </trkpt>
      <trkpt lat="49.05865" lon="7.66631">
        <ele>351</ele>
        <time>2018-06-06T09:31:25Z</time>
      </trkpt>
      <trkpt lat="49.05832" lon="7.66529">
        <ele>357</ele>
        <time>2018-06-06T09:32:25Z</time>
      </trkpt>
      <trkpt lat="49.05816" lon="7.66474">
        <ele>360</ele>
        <time>2018-06-06T09:33:25Z</time>
      </trkpt>
      <trkpt lat="49.05825" lon="7.66448">
        <ele>366</ele>
        <time>2018-06-06T09:34:25Z</time>
      </trkpt>
      <trkpt lat="49.05822" lon="7.66397">
        <ele>371</ele>
        <time>2018-06-06T09:35:25Z</time>
      </trkpt>
      <trkpt lat="49.05846" lon="7.6639">
        <ele>372</ele>
        <time>2018-06-06T09:36:25Z</time>
      </trkpt>
      <trkpt lat="49.0585" lon="7.66356">
        <ele>373</ele>
        <time>2018-06-06T09:37:25Z</time>
      </trkpt>
      <trkpt lat="49.05825" lon="7.66332">
        <ele>377</ele>
        <time>2018-06-06T09:38:25Z</time>
      </trkpt>
      <trkpt lat="49.05806" lon="7.66227">
        <ele>379</ele>
        <time>2018-06-06T09:39:25Z</time>
      </trkpt>
      <trkpt lat="49.05812" lon="7.66179">
        <ele>379</ele>
        <time>2018-06-06T09:40:25Z</time>
      </trkpt>
      <trkpt lat="49.05801" lon="7.66101">
        <ele>379</ele>
        <time>2018-06-06T09:41:25Z</time>
      </trkpt>
      <trkpt lat="49.05783" lon="7.65986">
        <ele>378</ele>
        <time>2018-06-06T09:42:25Z</time>
      </trkpt>
      <trkpt lat="49.05744" lon="7.65909">
        <ele>379</ele>
        <time>2018-06-06T09:43:25Z</time>
      </trkpt>
      <trkpt lat="49.05715" lon="7.65841">
        <ele>367</ele>
        <time>2018-06-06T09:44:25Z</time>
      </trkpt>
      <trkpt lat="49.05664" lon="7.65749">
        <ele>370</ele>
        <time>2018-06-06T09:45:25Z</time>
      </trkpt>
      <trkpt lat="49.0564" lon="7.6567">
        <ele>354</ele>
        <time>2018-06-06T09:46:25Z</time>
      </trkpt>
      <trkpt lat="49.05621" lon="7.65683">
        <ele>351</ele>
        <time>2018-06-06T09:47:25Z</time>
      </trkpt>
      <trkpt lat="49.05632" lon="7.65751">
        <ele>358</ele>
        <time>2018-06-06T09:48:25Z</time>
      </trkpt>
      <trkpt lat="49.05668" lon="7.65901">
        <ele>369</ele>
        <time>2018-06-06T09:49:25Z</time>
      </trkpt>
      <trkpt lat="49.05689" lon="7.66039">
        <ele>374</ele>
        <time>2018-06-06T09:50:25Z</time>
      </trkpt>
      <trkpt lat="49.05696" lon="7.66081">
        <ele>376</ele>
        <time>2018-06-06T09:51:25Z</time>
      </trkpt>
      <trkpt lat="49.05656" lon="7.6605">
        <ele>369</ele>
        <time>2018-06-06T09:52:25Z</time>
      </trkpt>
      <trkpt lat="49.05622" lon="7.66072">
        <ele>367</ele>
        <time>2018-06-06T09:53:25Z</time>
      </trkpt>
      <trkpt lat="49.05626" lon="7.66103">
        <ele>369</ele>
        <time>2018-06-06T09:54:25Z</time>
      </trkpt>
      <trkpt lat="49.05556" lon="7.66194">
        <ele>367</ele>
        <time>2018-06-06T09:55:25Z</time>
      </trkpt>
      <trkpt lat="49.05513" lon="7.661">
        <ele>365</ele>
        <time>2018-06-06T09:56:25Z</time>
      </trkpt>
      <trkpt lat="49.05513" lon="7.66066">
        <ele>362</ele>
        <time>2018-06-06T09:57:25Z</time>
      </trkpt>
      <trkpt lat="49.05493" lon="7.66053">
        <ele>358</ele>
        <time>2018-06-06T09:58:25Z</time>
      </trkpt>
      <trkpt lat="49.05479" lon="7.66019">
        <ele>350</ele>
        <time>2018-06-06T09:59:25Z</time>
      </trkpt>
      <trkpt lat="49.05453" lon="7.66036">
        <ele>346</ele>
        <time>2018-06-06T10:00:25Z</time>
      </trkpt>
      <trkpt lat="49.05432" lon="7.66009">
        <ele>341</ele>
        <time>2018-06-06T10:01:25Z</time>
      </trkpt>
      <trkpt lat="49.05444" lon="7.65993">
        <ele>342</ele>
        <time>2018-06-06T10:02:25Z</time>
      </trkpt>
      <trkpt lat="49.05431" lon="7.65969">
        <ele>338</ele>
        <time>2018-06-06T10:03:25Z</time>
      </trkpt>
      <trkpt lat="49.05417" lon="7.65955">
        <ele>336</ele>
        <time>2018-06-06T10:04:25Z</time>
      </trkpt>
      <trkpt lat="49.05413" lon="7.65934">
        <ele>334</ele>
        <time>2018-06-06T10:05:25Z</time>
      </trkpt>
      <trkpt lat="49.054" lon="7.65924">
        <ele>331</ele>
        <time>2018-06-06T10:06:25Z</time>
      </trkpt>
      <trkpt lat="49.05402" lon="7.65904">
        <ele>329</ele>
        <time>2018-06-06T10:07:25Z</time>
      </trkpt>
      <trkpt lat="49.05349" lon="7.65898">
        <ele>322</ele>
        <time>2018-06-06T10:08:25Z</time>
      </trkpt>
      <trkpt lat="49.05325" lon="7.65827">
        <ele>319</ele>
        <time>2018-06-06T10:09:25Z</time>
      </trkpt>
      <trkpt lat="49.05355" lon="7.65789">
        <ele>317</ele>
        <time>2018-06-06T10:10:25Z</time>
      </trkpt>
      <trkpt lat="49.05395" lon="7.65846">
        <ele>324</ele>
        <time>2018-06-06T10:11:25Z</time>
      </trkpt>
      <trkpt lat="49.05427" lon="7.65874">
        <ele>327</ele>
        <time>2018-06-06T10:12:25Z</time>
      </trkpt>
      <trkpt lat="49.05505" lon="7.65937">
        <ele>336</ele>
        <time>2018-06-06T10:13:25Z</time>
      </trkpt>
      <trkpt lat="49.05577" lon="7.65969">
        <ele>346</ele>
        <time>2018-06-06T10:14:25Z</time>
      </trkpt>
      <trkpt lat="49.05588" lon="7.65949">
        <ele>345</ele>
        <time>2018-06-06T10:15:25Z</time>
      </trkpt>
      <trkpt lat="49.05592" lon="7.65923">
        <ele>343</ele>
        <time>2018-06-06T10:16:25Z</time>
      </trkpt>
      <trkpt lat="49.05559" lon="7.65716">
        <ele>332</ele>
        <time>2018-06-06T10:17:25Z</time>
      </trkpt>
      <trkpt lat="49.05547" lon="7.65631">
        <ele>329</ele>
        <time>2018-06-06T10:18:25Z</time>
      </trkpt>
      <trkpt lat="49.05566" lon="7.65534">
        <ele>331</ele>
        <time>2018-06-06T10:19:25Z</time>
      </trkpt>
      <trkpt lat="49.05577" lon="7.65488">
        <ele>328</ele>
        <time>2018-06-06T10:20:25Z</time>
      </trkpt>
      <trkpt lat="49.0557" lon="7.65373">
        <ele>318</ele>
        <time>2018-06-06T10:21:25Z</time>
      </trkpt>
      <trkpt lat="49.05563" lon="7.65336">
        <ele>314</ele>
        <time>2018-06-06T10:22:25Z</time>
      </trkpt>
      <trkpt lat="49.05554" lon="7.65278">
        <ele>306</ele>
        <time>2018-06-06T10:23:25Z</time>
      </trkpt>
      <trkpt lat="49.05499" lon="7.65239">
        <ele>299</ele>
        <time>2018-06-06T10:24:25Z</time>
      </trkpt>
      <trkpt lat="49.05506" lon="7.65192">
        <ele>297</ele>
        <time>2018-06-06T10:25:25Z</time>
      </trkpt>
      <trkpt lat="49.05534" lon="7.65182">
        <ele>297</ele>
        <time>2018-06-06T10:26:25Z</time>
      </trkpt>
      <trkpt lat="49.05566" lon="7.65212">
        <ele>300</ele>
        <time>2018-06-06T10:27:25Z</time>
      </trkpt>
      <trkpt lat="49.05715" lon="7.65329">
        <ele>290</ele>
        <time>2018-06-06T10:28:25Z</time>
      </trkpt>
      <trkpt lat="49.05873" lon="7.65446">
        <ele>280</ele>
        <time>2018-06-06T10:29:25Z</time>
      </trkpt>
      <trkpt lat="49.05955" lon="7.65514">
        <ele>278</ele>
        <time>2018-06-06T10:30:25Z</time>
      </trkpt>
      <trkpt lat="49.06043" lon="7.65582">
        <ele>274</ele>
        <time>2018-06-06T10:31:25Z</time>
      </trkpt>
      <trkpt lat="49.06072" lon="7.65573">
        <ele>273</ele>
        <time>2018-06-06T10:32:25Z</time>
      </trkpt>
      <trkpt lat="49.06071" lon="7.65503">
        <ele>272</ele>
        <time>2018-06-06T10:33:25Z</time>
      </trkpt>
      <trkpt lat="49.06089" lon="7.65376">
        <ele>268</ele>
        <time>2018-06-06T10:34:25Z</time>
      </trkpt>
      <trkpt lat="49.06104" lon="7.65326">
        <ele>268</ele>
        <time>2018-06-06T10:35:25Z</time>
      </trkpt>
      <trkpt lat="49.0615" lon="7.65248">
        <ele>268</ele>
        <time>2018-06-06T10:36:25Z</time>
      </trkpt>
      <trkpt lat="49.06193" lon="7.65295">
        <ele>273</ele>
        <time>2018-06-06T10:37:25Z</time>
      </trkpt>
      <trkpt lat="49.06216" lon="7.65327">
        <ele>281</ele>
        <time>2018-06-06T10:38:25Z</time>
      </trkpt>
      <trkpt lat="49.06246" lon="7.6536">
        <ele>292</ele>
        <time>2018-06-06T10:39:25Z</time>
      </trkpt>
      <trkpt lat="49.06245" lon="7.65403">
        <ele>297</ele>
        <time>2018-06-06T10:40:25Z</time>
      </trkpt>
      <trkpt lat="49.06259" lon="7.65395">
        <ele>299</ele>
        <time>2018-06-06T10:41:25Z</time>
      </trkpt>
      <trkpt lat="49.06267" lon="7.65427">
        <ele>303</ele>
        <time>2018-06-06T10:42:25Z</time>
      </trkpt>
      <trkpt lat="49.06272" lon="7.65467">
        <ele>305</ele>
        <time>2018-06-06T10:43:25Z</time>
      </trkpt>
      <trkpt lat="49.06299" lon="7.65487">
        <ele>312</ele>
        <time>2018-06-06T10:44:25Z</time>
      </trkpt>
      <trkpt lat="49.06312" lon="7.6552">
        <ele>312</ele>
        <time>2018-06-06T10:45:25Z</time>
      </trkpt>
      <trkpt lat="49.06363" lon="7.65517">
        <ele>325</ele>
        <time>2018-06-06T10:46:25Z</time>
      </trkpt>
      <trkpt lat="49.06442" lon="7.65575">
        <ele>332</ele>
        <time>2018-06-06T10:47:25Z</time>
      </trkpt>
      <trkpt lat="49.06429" lon="7.65595">
        <ele>325</ele>
        <time>2018-06-06T10:48:25Z</time>
      </trkpt>
      <trkpt lat="49.06477" lon="7.65627">
        <ele>323</ele>
        <time>2018-06-06T10:49:25Z</time>
      </trkpt>
      <trkpt lat="49.06505" lon="7.65641">
        <ele>323</ele>
        <time>2018-06-06T10:50:25Z</time>
      </trkpt>
      <trkpt lat="49.06541" lon="7.65656">
        <ele>325</ele>
        <time>2018-06-06T10:51:25Z</time>
      </trkpt>
      <trkpt lat="49.06601" lon="7.6572">
        <ele>311</ele>
        <time>2018-06-06T10:52:25Z</time>
      </trkpt>
      <trkpt lat="49.06759" lon="7.65867">
        <ele>298</ele>
        <time>2018-06-06T10:53:25Z</time>
      </trkpt>
      <trkpt lat="49.06811" lon="7.65837">
        <ele>296</ele>
        <time>2018-06-06T10:54:25Z</time>
      </trkpt>
      <trkpt lat="49.06862" lon="7.65858">
        <ele>285</ele>
        <time>2018-06-06T10:55:25Z</time>
      </trkpt>
      <trkpt lat="49.06885" lon="7.65892">
        <ele>281</ele>
        <time>2018-06-06T10:56:25Z</time>
      </trkpt>
      <trkpt lat="49.06931" lon="7.65885">
        <ele>273</ele>
        <time>2018-06-06T10:57:25Z</time>
      </trkpt>
      <trkpt lat="49.06869" lon="7.65708">
        <ele>278</ele>
        <time>2018-06-06T10:58:25Z</time>
      </trkpt>
      <trkpt lat="49.06845" lon="7.65631">
        <ele>275</ele>
        <time>2018-06-06T10:59:25Z</time>
      </trkpt>
      <trkpt lat="49.06834" lon="7.65555">
        <ele>267</ele>
        <time>2018-06-06T11:00:25Z</time>
      </trkpt>
      <trkpt lat="49.06862" lon="7.65488">
        <ele>260</ele>
        <time>2018-06-06T11:01:25Z</time>
      </trkpt>
      <trkpt lat="49.06948" lon="7.65356">
        <ele>256</ele>
        <time>2018-06-06T11:02:25Z</time>
      </trkpt>
      <trkpt lat="49.06932" lon="7.65336">
        <ele>255</ele>
        <time>2018-06-06T11:03:25Z</time>
      </trkpt>
      <trkpt lat="49.07072" lon="7.6525">
        <ele>249</ele>
        <time>2018-06-06T11:04:25Z</time>
      </trkpt>
      <trkpt lat="49.07022" lon="7.65117">
        <ele>250</ele>
        <time>2018-06-06T11:05:25Z</time>
      </trkpt>
      <trkpt lat="49.06972" lon="7.65032">
        <ele>253</ele>
        <time>2018-06-06T11:06:25Z</time>
      </trkpt>
      <trkpt lat="49.06921" lon="7.64918">
        <ele>252</ele>
        <time>2018-06-06T11:07:25Z</time>
      </trkpt>
      <trkpt lat="49.06851" lon="7.64752">
        <ele>260</ele>
        <time>2018-06-06T11:08:25Z</time>
      </trkpt>
      <trkpt lat="49.06781" lon="7.64605">
        <ele>264</ele>
        <time>2018-06-06T11:09:25Z</time>
      </trkpt>
      <trkpt lat="49.06753" lon="7.64611">
        <ele>260</ele>
        <time>2018-06-06T11:10:25Z</time>
      </trkpt>
      <trkpt lat="49.06746" lon="7.64529">
        <ele>263</ele>
        <time>2018-06-06T11:11:25Z</time>
      </trkpt>
      <trkpt lat="49.06782" lon="7.64493">
        <ele>275</ele>
        <time>2018-06-06T11:12:25Z</time>
      </trkpt>
      <trkpt lat="49.06865" lon="7.64614">
        <ele>274</ele>
        <time>2018-06-06T11:13:25Z</time>
      </trkpt>
      <trkpt lat="49.06934" lon="7.64714">
        <ele>268</ele>
        <time>2018-06-06T11:14:25Z</time>
      </trkpt>
      <trkpt lat="49.0696" lon="7.64723">
        <ele>266</ele>
        <time>2018-06-06T11:15:25Z</time>
      </trkpt>
      <trkpt lat="49.06988" lon="7.64752">
        <ele>262</ele>
        <time>2018-06-06T11:16:25Z</time>
      </trkpt>
      <trkpt lat="49.07072" lon="7.6503">
        <ele>251</ele>
        <time>2018-06-06T11:17:25Z</time>
      </trkpt>
      <trkpt lat="49.07107" lon="7.65144">
        <ele>252</ele>
        <time>2018-06-06T11:18:25Z</time>
      </trkpt>
      <trkpt lat="49.07151" lon="7.65349">
        <ele>248</ele>
        <time>2018-06-06T11:19:25Z</time>
      </trkpt>
      <trkpt lat="49.07181" lon="7.65543">
        <ele>254</ele>
        <time>2018-06-06T11:20:25Z</time>
      </trkpt>
      <trkpt lat="49.07201" lon="7.6564">
        <ele>254</ele>
        <time>2018-06-06T11:21:25Z</time>
      </trkpt>
      <trkpt lat="49.07193" lon="7.65682">
        <ele>254</ele>
        <time>2018-06-06T11:22:25Z</time>
      </trkpt>
      <trkpt lat="49.07169" lon="7.65734">
        <ele>255</ele>
        <time>2018-06-06T11:23:25Z</time>
      </trkpt>
      <trkpt lat="49.07127" lon="7.65799">
        <ele>252</ele>
        <time>2018-06-06T11:24:25Z</time>
      </trkpt>
      <trkpt lat="49.07168" lon="7.65884">
        <ele>248</ele>
        <time>2018-06-06T11:25:25Z</time>
      </trkpt>
      <trkpt lat="49.07201" lon="7.65965">
        <ele>247</ele>
        <time>2018-06-06T11:26:25Z</time>
      </trkpt>
      <trkpt lat="49.0723" lon="7.65992">
        <ele>246</ele>
        <time>2018-06-06T11:27:25Z</time>
      </trkpt>
      <trkpt lat="49.07292" lon="7.66086">
        <ele>246</ele>
        <time>2018-06-06T11:28:25Z</time>
      </trkpt>
      <trkpt lat="49.07334" lon="7.66166">
        <ele>245</ele>
        <time>2018-06-06T11:29:25Z</time>
      </trkpt>
      <trkpt lat="49.07348" lon="7.66214">
        <ele>251</ele>
        <time>2018-06-06T11:30:25Z</time>
      </trkpt>
      <trkpt lat="49.07406" lon="7.66318">
        <ele>250</ele>
        <time>2018-06-06T11:31:25Z</time>
      </trkpt>
      <trkpt lat="49.07449" lon="7.66362">
        <ele>245</ele>
        <time>2018-06-06T11:32:25Z</time>
      </trkpt>
      <trkpt lat="49.07489" lon="7.66326">
        <ele>239</ele>
        <time>2018-06-06T11:33:25Z</time>
      </trkpt>
      <trkpt lat="49.07525" lon="7.66311">
        <ele>238</ele>
        <time>2018-06-06T11:34:25Z</time>
      </trkpt>
      <trkpt lat="49.07552" lon="7.66326">
        <ele>238</ele>
        <time>2018-06-06T11:35:25Z</time>
      </trkpt>
      <trkpt lat="49.07591" lon="7.66385">
        <ele>238</ele>
        <time>2018-06-06T11:36:25Z</time>
      </trkpt>
      <trkpt lat="49.07629" lon="7.66446">
        <ele>238</ele>
        <time>2018-06-06T11:37:25Z</time>
      </trkpt>
      <trkpt lat="49.07656" lon="7.665">
        <ele>237</ele>
        <time>2018-06-06T11:38:25Z</time>
      </trkpt>
      <trkpt lat="49.07679" lon="7.66552">
        <ele>236</ele>
        <time>2018-06-06T11:39:25Z</time>
      </trkpt>
      <trkpt lat="49.07706" lon="7.66595">
        <ele>235</ele>
        <time>2018-06-06T11:40:25Z</time>
      </trkpt>
      <trkpt lat="49.07738" lon="7.66566">
        <ele>237</ele>
        <time>2018-06-06T11:41:25Z</time>
      </trkpt>
    </trkseg>
  </trk>
</gpx>